Fort Myers, FL (33965)

3:40 AM EDT on April 24, 2017 (GMT -0400)
| | Change Station
Active Advisory: Lake Wind Advisory

Elev -9999 ft 0.00 °N, 0.00 °E | Updated 9 minutes ago

Partly Cloudy
Partly Cloudy
°F
Feels Like °F
N
Wind Variable Wind from North
Gusts mph

Today
High -- | Low -- °F
--% Chance of Precip.
Yesterday
High -- | Low -- °F
Precip. -- in
Pressure 29.77 in
Visibility 10.0 miles
Clouds Few 2000 ft
Dew Point Not available.
Humidity Not available.
Rainfall --
Snow Depth Not available.
6:54 AM 7:55 PM
Waning Crescent, 7% visible
METAR KRSW 240653Z 00000KT 10SM FEW020 20/18 A2977 RMK AO2 SLP079 T02000183
Pressure 29.77 in
Visibility 10.0 miles
Clouds Few 2000 ft
Dew Point Not available.
Humidity Not available.
Rainfall --
Snow Depth Not available.
6:54 AM 7:55 PM
Waning Crescent, 7% visible
METAR KRSW 240653Z 00000KT 10SM FEW020 20/18 A2977 RMK AO2 SLP079 T02000183

Get Your Daily Forecast Email!

Thanks for signing up!

Be on the lookout for a verification email in your inbox.

You'll start receiving severe weather alerts in your inbox..

×

10-Day Weather Forecast

Almanac

Astronomy

Apr. 24, 2017 Rise Set
Actual Time
Civil Twilight
Nautical Twilight
Astronomical Twilight
Moon
Length of Visible Light
Length of Day
Tomorrow will be .
, % of the Moon is Illuminated

Today's Extremes

State Highs State Lows

Community

WunderPhotos

WunderBlog® & News

Nearby

Air Quality

  Air Quality AQ Index Pollutant
Not available.

Snow Depth

Station Depth Elevation

Earthquake Activity

City Distance Mag. Time & Date
Minimum magnitude displayed is 2.5.

Coastal Water Temperatures

Place Temperature

Stations

Nearby Weather Stations

Station Location Temp. Windchill Dew Point Humidity Wind Precip. Elev Updated Type
                   

Watches & Warnings

Lake Wind Advisory
Issued: 3:30 AM EDT Apr. 24, 2017 – National Weather Service

... Lake Wind Advisory in effect from noon today to 7 PM EDT this
evening...

The National Weather Service in Tampa Bay area - Ruskin FL has
issued a lake Wind Advisory, which is in effect from noon today
to 7 PM EDT this evening.

* Timing... noon through 7 PM EDT this evening.

* Winds... 20 to 25 mph with a few higher gusts.

* Impacts... strong gusty winds will make for choppy and difficult
boating conditions on areas lakes.

Precautionary/preparedness actions...

A lake Wind Advisory indicates that winds will cause rough chop
on area lakes. Small boats will be especially prone to capsizing.